createdAt,value
2022-12-09T00:01:26.539Z,5.80
2022-12-09T00:03:55.268Z,28.33
2022-12-09T00:06:24.084Z,19.97
2022-12-09T00:08:52.202Z,39.17
2022-12-09T00:11:20.349Z,36.83
2022-12-09T00:13:49.012Z,33.40
2022-12-09T00:16:16.720Z,39.10
2022-12-09T00:18:45.842Z,52.77
2022-12-09T00:21:14.066Z,29.57
2022-12-09T00:23:41.923Z,32.20
2022-12-09T00:26:09.826Z,18.23
2022-12-09T00:28:37.223Z,34.90
2022-12-09T00:31:05.047Z,44.70
2022-12-09T00:33:32.884Z,37.93
2022-12-09T00:36:06.329Z,43.23
2022-12-09T00:38:33.642Z,44.90
2022-12-09T00:41:00.975Z,21.60
2022-12-09T00:43:28.826Z,38.03
2022-12-09T00:45:56.169Z,47.23
2022-12-09T00:48:23.776Z,49.20
2022-12-09T00:50:51.107Z,37.03
2022-12-09T00:53:19.945Z,35.60
2022-12-09T00:55:47.592Z,29.73
2022-12-09T00:58:15.132Z,46.30
2022-12-09T01:00:42.496Z,50.40
2022-12-09T01:03:12.852Z,64.43
2022-12-09T01:05:40.845Z,45.90
2022-12-09T01:08:08.736Z,36.37
2022-12-09T01:10:38.363Z,20.93
2022-12-09T01:13:06.187Z,36.47
2022-12-09T01:15:33.811Z,36.17
2022-12-09T01:18:01.280Z,44.67
2022-12-09T01:20:28.576Z,32.43
2022-12-09T01:22:56.173Z,19.13
2022-12-09T01:25:26.382Z,32.60
2022-12-09T01:27:55.523Z,34.57
2022-12-09T01:30:22.801Z,37.40
2022-12-09T01:32:50.197Z,26.57
2022-12-09T01:35:17.695Z,40.07
2022-12-09T01:37:45.869Z,47.37
2022-12-09T01:40:15.545Z,76.57
2022-12-09T01:42:43.128Z,71.83
2022-12-09T01:45:38.031Z,61.27
2022-12-09T01:48:08.119Z,34.10
2022-12-09T01:50:44.240Z,38.07
2022-12-09T01:53:12.426Z,40.60
2022-12-09T01:55:40.575Z,36.30
2022-12-09T01:58:08.236Z,16.53
2022-12-09T02:00:55.632Z,39.00
2022-12-09T02:03:37.309Z,25.00
2022-12-09T02:06:05.189Z,19.97
2022-12-09T02:08:32.538Z,30.07
2022-12-09T02:11:03.315Z,55.33
2022-12-09T02:13:34.957Z,39.70
2022-12-09T02:16:06.147Z,29.30
2022-12-09T02:21:13.023Z,28.40
2022-12-09T02:23:42.011Z,24.33
2022-12-09T02:26:16.908Z,26.13
2022-12-09T02:29:05.684Z,20.23
2022-12-09T02:31:57.974Z,16.23
2022-12-09T02:34:44.879Z,32.37
2022-12-09T02:37:16.939Z,37.80
2022-12-09T02:39:52.266Z,19.20
2022-12-09T02:42:22.266Z,13.13
2022-12-09T02:44:50.809Z,15.60
2022-12-09T02:47:21.484Z,10.83
2022-12-09T02:50:10.419Z,23.13
2022-12-09T02:52:40.567Z,22.47
2022-12-09T02:55:10.067Z,27.13
2022-12-09T02:57:39.442Z,18.53
2022-12-09T03:03:20.259Z,15.33
2022-12-09T03:05:50.815Z,19.50
2022-12-09T03:08:25.061Z,16.47
2022-12-09T03:10:56.041Z,18.13
2022-12-09T03:13:29.903Z,18.60
2022-12-09T03:16:01.051Z,17.27
2022-12-09T03:21:13.503Z,23.23
2022-12-09T03:23:43.841Z,14.17
2022-12-09T03:26:11.999Z,16.80
2022-12-09T03:28:42.284Z,24.57
2022-12-09T03:31:18.055Z,17.77
2022-12-09T03:34:11.074Z,16.07
2022-12-09T03:39:54.560Z,17.03
2022-12-09T03:42:23.265Z,20.20
2022-12-09T03:44:51.757Z,15.93
2022-12-09T03:47:19.574Z,18.90
2022-12-09T03:49:50.681Z,24.70
2022-12-09T03:52:21.055Z,18.60
2022-12-09T03:54:50.799Z,15.07
2022-12-09T03:57:21.311Z,19.97
2022-12-09T03:59:52.191Z,19.30
2022-12-09T04:02:19.899Z,28.87
2022-12-09T04:04:47.551Z,19.73
2022-12-09T04:07:14.938Z,16.43
2022-12-09T04:09:42.312Z,27.47
2022-12-09T04:12:10.076Z,18.93
2022-12-09T04:14:38.664Z,21.10
2022-12-09T04:17:06.033Z,12.83
2022-12-09T04:23:14.564Z,16.07
2022-12-09T04:25:42.258Z,16.10
2022-12-09T04:28:09.545Z,22.10
2022-12-09T04:30:39.062Z,17.67
2022-12-09T04:33:06.348Z,19.10
2022-12-09T04:35:33.581Z,19.30
2022-12-09T04:38:13.238Z,20.13
2022-12-09T04:40:40.978Z,23.37
2022-12-09T04:43:08.341Z,20.90
2022-12-09T04:45:35.895Z,17.77
2022-12-09T04:48:11.165Z,18.97
2022-12-09T04:50:50.910Z,17.10
2022-12-09T04:56:28.737Z,20.37
2022-12-09T04:58:56.011Z,18.43
2022-12-09T05:01:30.023Z,13.40
2022-12-09T05:03:59.683Z,20.70
2022-12-09T05:06:27.518Z,23.03
2022-12-09T05:08:55.668Z,24.23
2022-12-09T05:11:23.864Z,18.73
2022-12-09T05:13:51.948Z,20.73
2022-12-09T05:16:19.823Z,17.77
2022-12-09T05:22:36.955Z,19.07
2022-12-09T05:25:04.685Z,17.40
2022-12-09T05:27:32.389Z,19.03
2022-12-09T05:29:59.630Z,19.97
2022-12-09T05:32:27.314Z,22.93
2022-12-09T05:34:54.938Z,18.47
2022-12-09T05:37:31.787Z,22.43
2022-12-09T05:40:00.643Z,19.97
2022-12-09T05:42:28.235Z,19.90
2022-12-09T05:44:55.856Z,12.03
2022-12-09T05:47:23.462Z,22.63
2022-12-09T05:50:13.910Z,20.27
2022-12-09T05:52:54.009Z,20.50
2022-12-09T05:55:23.275Z,19.63
2022-12-09T05:57:51.060Z,23.57
2022-12-09T06:00:18.734Z,22.03
2022-12-09T06:02:46.357Z,24.27
2022-12-09T06:05:14.559Z,21.83
2022-12-09T06:07:45.033Z,21.70
2022-12-09T06:10:13.113Z,17.93
2022-12-09T06:12:42.432Z,21.60
2022-12-09T06:15:11.352Z,22.43
2022-12-09T06:17:58.931Z,23.53
2022-12-09T06:24:11.758Z,19.13
2022-12-09T06:26:39.416Z,21.20
2022-12-09T06:29:08.195Z,22.30
2022-12-09T06:31:35.826Z,20.77
2022-12-09T06:34:03.720Z,22.23
2022-12-09T06:39:10.648Z,23.07
2022-12-09T06:41:38.848Z,26.17
2022-12-09T06:44:07.558Z,23.53
2022-12-09T06:46:35.212Z,22.30
2022-12-09T06:49:02.717Z,22.20
2022-12-09T06:51:49.337Z,26.27
2022-12-09T06:58:06.579Z,26.87
2022-12-09T07:00:35.451Z,28.70
2022-12-09T07:03:03.009Z,26.57
2022-12-09T07:05:30.900Z,25.00
2022-12-09T07:07:58.910Z,28.20
2022-12-09T07:10:26.522Z,32.73
2022-12-09T07:12:54.241Z,26.23
2022-12-09T07:15:21.699Z,24.80
2022-12-09T07:17:50.521Z,23.63
2022-12-09T07:20:17.931Z,18.83
2022-12-09T07:26:34.490Z,26.60
2022-12-09T07:29:02.946Z,31.07
2022-12-09T07:31:30.479Z,33.10
2022-12-09T07:34:00.158Z,15.40
2022-12-09T07:36:28.950Z,29.13
2022-12-09T07:38:57.159Z,27.37
2022-12-09T07:41:28.245Z,29.30
2022-12-09T07:43:55.884Z,26.37
2022-12-09T07:46:24.303Z,30.27
2022-12-09T07:48:51.992Z,29.90
2022-12-09T07:51:40.150Z,12.43
2022-12-09T07:54:35.765Z,27.37
2022-12-09T07:57:06.196Z,24.80
2022-12-09T07:59:33.637Z,28.27
2022-12-09T08:02:05.702Z,26.00
2022-12-09T08:04:35.494Z,29.40
2022-12-09T08:07:03.560Z,28.43
2022-12-09T08:09:31.319Z,25.47
2022-12-09T08:11:58.785Z,65.03
2022-12-09T08:14:28.379Z,82.53
2022-12-09T08:16:56.239Z,72.57
2022-12-09T08:19:23.955Z,77.00
2022-12-09T08:21:54.529Z,28.77
2022-12-09T08:24:22.684Z,45.60
2022-12-09T08:26:51.371Z,31.27
2022-12-09T08:29:19.290Z,39.40
2022-12-09T08:31:48.330Z,34.37
2022-12-09T08:34:16.188Z,33.77
2022-12-09T08:36:44.368Z,34.27
2022-12-09T08:39:12.420Z,35.57
2022-12-09T08:41:40.452Z,36.30
2022-12-09T08:44:09.690Z,37.23
2022-12-09T08:46:38.186Z,47.33
2022-12-09T08:49:08.172Z,51.07
2022-12-09T08:55:24.150Z,50.97
2022-12-09T08:57:51.947Z,29.67
2022-12-09T09:00:20.373Z,42.87
2022-12-09T09:02:47.969Z,38.37
2022-12-09T09:05:17.694Z,39.40
2022-12-09T09:07:45.745Z,44.47
2022-12-09T09:10:13.634Z,28.70
2022-12-09T09:12:43.903Z,35.90
2022-12-09T09:15:12.830Z,31.00
2022-12-09T09:17:42.036Z,16.73
2022-12-09T09:20:11.943Z,33.00
2022-12-09T09:22:41.186Z,33.20
2022-12-09T09:25:09.683Z,37.07
2022-12-09T09:27:38.029Z,34.50
2022-12-09T09:30:06.225Z,33.33
2022-12-09T09:32:33.845Z,35.30
2022-12-09T09:35:01.593Z,32.40
2022-12-09T09:37:29.178Z,34.67
2022-12-09T09:39:58.355Z,37.13
2022-12-09T09:42:30.279Z,35.73
2022-12-09T09:44:58.295Z,33.97
2022-12-09T09:47:30.434Z,27.83
2022-12-09T09:50:04.124Z,39.50
2022-12-09T09:52:32.430Z,42.50
2022-12-09T09:55:07.018Z,39.97
2022-12-09T09:57:41.217Z,45.83
2022-12-09T10:00:14.094Z,40.10
2022-12-09T10:02:53.577Z,41.00
2022-12-09T10:05:23.251Z,37.13
2022-12-09T10:07:53.516Z,35.73
2022-12-09T10:10:28.418Z,30.80
2022-12-09T10:13:07.239Z,32.30
2022-12-09T10:15:42.848Z,32.50
2022-12-09T10:18:14.669Z,29.47
2022-12-09T10:20:42.647Z,34.80
2022-12-09T10:23:13.113Z,31.53
2022-12-09T10:25:45.764Z,33.27
2022-12-09T10:28:18.796Z,32.47
2022-12-09T10:30:46.208Z,33.23
2022-12-09T10:33:15.061Z,33.10
2022-12-09T10:35:42.717Z,34.97
2022-12-09T10:38:11.832Z,31.47
2022-12-09T10:41:04.454Z,13.63
2022-12-09T10:43:34.538Z,34.10
2022-12-09T10:46:19.694Z,34.93
2022-12-09T10:48:53.055Z,32.03
2022-12-09T10:51:48.892Z,30.17
2022-12-09T10:54:36.613Z,32.17
2022-12-09T10:57:06.000Z,37.73
2022-12-09T10:59:36.047Z,35.93
2022-12-09T11:02:04.743Z,40.53
2022-12-09T11:04:35.148Z,35.33
2022-12-09T11:07:04.057Z,40.47
2022-12-09T11:12:43.237Z,39.53
2022-12-09T11:15:25.582Z,36.90
2022-12-09T11:17:57.065Z,40.70
2022-12-09T11:24:27.868Z,41.43
2022-12-09T11:26:55.563Z,49.57
2022-12-09T11:29:22.962Z,50.60
2022-12-09T11:31:52.338Z,42.60
2022-12-09T11:34:21.538Z,36.57
2022-12-09T11:36:50.573Z,41.57
2022-12-09T11:42:02.488Z,37.07
2022-12-09T11:44:30.928Z,37.60
2022-12-09T11:47:01.100Z,31.10
2022-12-09T11:49:52.087Z,26.63
2022-12-09T11:56:14.664Z,27.90
2022-12-09T11:58:44.478Z,29.53
2022-12-09T12:01:13.314Z,28.03
2022-12-09T12:03:45.177Z,27.40
2022-12-09T12:06:16.450Z,25.63
2022-12-09T12:09:01.867Z,27.87
2022-12-09T12:11:29.994Z,24.27
2022-12-09T12:14:01.762Z,26.33
2022-12-09T12:16:37.804Z,27.40
2022-12-09T12:22:56.280Z,30.57
2022-12-09T12:25:34.842Z,27.70
2022-12-09T12:28:07.159Z,30.13
2022-12-09T12:30:40.550Z,30.00
2022-12-09T12:33:59.734Z,26.83
2022-12-09T12:36:11.026Z,25.63
2022-12-09T12:41:33.154Z,25.23
2022-12-09T12:44:05.756Z,29.83
2022-12-09T12:46:38.566Z,23.90
2022-12-09T12:53:06.893Z,29.03
2022-12-09T12:55:41.038Z,28.67
2022-12-09T12:58:11.824Z,27.63
2022-12-09T13:00:44.541Z,29.53
2022-12-09T13:03:20.446Z,25.00
2022-12-09T13:05:49.618Z,24.83
2022-12-09T13:11:12.979Z,25.30
2022-12-09T13:13:43.007Z,24.97
2022-12-09T13:16:16.298Z,26.03
2022-12-09T13:22:31.925Z,23.27
2022-12-09T13:25:01.416Z,22.07
2022-12-09T13:27:34.895Z,23.23
2022-12-09T13:30:03.799Z,25.47
2022-12-09T13:32:40.984Z,26.67
2022-12-09T13:35:13.109Z,24.20
2022-12-09T13:38:02.755Z,24.67
2022-12-09T13:40:31.717Z,25.10
2022-12-09T13:43:07.941Z,21.80
2022-12-09T13:45:36.029Z,22.27
2022-12-09T13:48:23.956Z,21.37
2022-12-09T13:54:29.329Z,23.77
2022-12-09T13:57:06.535Z,20.90
2022-12-09T13:59:41.228Z,25.77
2022-12-09T14:02:29.265Z,26.40
2022-12-09T14:05:00.713Z,23.43
2022-12-09T14:10:37.318Z,22.73
2022-12-09T14:13:06.407Z,20.70
2022-12-09T14:15:38.997Z,22.43
2022-12-09T14:24:52.083Z,20.17
2022-12-09T14:27:20.413Z,18.93
2022-12-09T14:29:49.878Z,18.27
2022-12-09T14:32:22.330Z,22.73
2022-12-09T14:34:59.278Z,18.57
2022-12-09T14:37:40.045Z,20.40
2022-12-09T14:40:20.303Z,25.10
2022-12-09T14:42:49.852Z,22.77
2022-12-09T14:45:20.725Z,18.20
2022-12-09T14:51:42.928Z,21.70
2022-12-09T14:54:16.782Z,21.27
2022-12-09T14:56:46.293Z,23.87
2022-12-09T14:59:17.577Z,21.97
2022-12-09T15:01:52.532Z,19.77
2022-12-09T15:04:24.589Z,21.67
2022-12-09T15:07:08.116Z,20.37
2022-12-09T15:09:36.939Z,29.57
2022-12-09T15:12:08.385Z,21.03
2022-12-09T15:14:36.617Z,25.20
2022-12-09T15:20:29.767Z,14.00
2022-12-09T15:23:01.354Z,23.03
2022-12-09T15:25:30.255Z,30.43
2022-12-09T15:27:58.792Z,25.77
2022-12-09T15:30:27.952Z,27.87
2022-12-09T15:32:55.293Z,25.50
2022-12-09T15:38:06.924Z,25.63
2022-12-09T15:40:37.001Z,23.63
2022-12-09T15:43:06.216Z,24.43
2022-12-09T15:45:35.232Z,25.37
2022-12-09T15:48:04.251Z,24.97
2022-12-09T15:50:58.777Z,26.23
2022-12-09T15:53:53.603Z,21.13
2022-12-09T15:56:50.153Z,22.37
2022-12-09T15:59:20.197Z,25.37
2022-12-09T16:01:48.355Z,21.53
2022-12-09T16:04:17.082Z,25.23
2022-12-09T16:07:05.887Z,21.03
2022-12-09T16:09:33.674Z,23.00
2022-12-09T16:12:02.720Z,26.93
2022-12-09T16:14:41.537Z,22.80
2022-12-09T16:17:18.594Z,19.37
2022-12-09T16:19:45.890Z,21.97
2022-12-09T16:22:29.514Z,20.07
2022-12-09T16:25:16.576Z,21.17
2022-12-09T16:27:46.559Z,21.87
2022-12-09T16:30:15.334Z,23.13
2022-12-09T16:36:25.811Z,22.37
2022-12-09T16:39:11.955Z,20.83
2022-12-09T16:41:55.252Z,22.93
2022-12-09T16:44:28.424Z,23.37
2022-12-09T16:47:03.536Z,19.30
2022-12-09T16:49:30.822Z,22.03
2022-12-09T16:51:58.064Z,21.70
2022-12-09T16:54:25.458Z,22.23
2022-12-09T16:56:52.727Z,23.70
2022-12-09T16:59:20.029Z,23.63
2022-12-09T17:05:24.325Z,26.13
2022-12-09T17:07:51.778Z,25.63
2022-12-09T17:10:19.072Z,30.13
2022-12-09T17:12:46.463Z,26.63
2022-12-09T17:15:14.966Z,28.03
2022-12-09T17:17:46.787Z,29.27
2022-12-09T17:22:59.388Z,28.07
2022-12-09T17:25:26.877Z,27.53
2022-12-09T17:27:54.291Z,29.77
2022-12-09T17:37:00.907Z,31.10
2022-12-09T17:39:29.707Z,29.87
2022-12-09T17:41:56.897Z,34.87
2022-12-09T17:44:24.138Z,32.93
2022-12-09T17:46:51.344Z,31.67
2022-12-09T17:52:08.081Z,30.43
2022-12-09T17:54:37.217Z,31.97
2022-12-09T17:57:04.528Z,28.57
2022-12-09T17:59:33.009Z,33.37
2022-12-09T18:02:00.278Z,33.97
2022-12-09T18:04:40.140Z,36.30
2022-12-09T18:11:04.640Z,35.00
2022-12-09T18:13:31.896Z,34.80
2022-12-09T18:15:59.175Z,39.37
2022-12-09T18:18:26.488Z,34.67
2022-12-09T18:20:53.711Z,36.57
2022-12-09T18:23:21.369Z,35.00
2022-12-09T18:25:53.805Z,41.93
2022-12-09T18:28:22.497Z,39.90
2022-12-09T18:30:49.811Z,40.23
2022-12-09T18:33:17.093Z,38.53
2022-12-09T18:39:10.372Z,37.40
2022-12-09T18:41:37.747Z,39.17
2022-12-09T18:44:07.381Z,41.20
2022-12-09T18:46:36.496Z,37.93
2022-12-09T18:49:05.317Z,26.80
2022-12-09T18:51:32.975Z,42.63
2022-12-09T18:57:05.140Z,42.30
2022-12-09T18:59:33.763Z,43.93
2022-12-09T19:02:01.025Z,48.40
2022-12-09T19:04:29.224Z,47.93
2022-12-09T19:06:57.630Z,48.13
2022-12-09T19:09:31.592Z,43.10
2022-12-09T19:15:01.088Z,43.60
2022-12-09T19:17:28.639Z,44.60
2022-12-09T19:19:56.034Z,44.50
2022-12-09T19:22:23.295Z,40.67
2022-12-09T19:25:09.366Z,45.47
2022-12-09T19:27:36.774Z,41.53
2022-12-09T19:30:06.739Z,45.23
2022-12-09T19:32:52.832Z,52.73
2022-12-09T19:35:20.683Z,35.00
2022-12-09T19:37:47.973Z,45.00
2022-12-09T19:40:27.388Z,43.67
2022-12-09T19:42:54.931Z,49.67
2022-12-09T19:45:23.583Z,47.47
2022-12-09T19:47:50.858Z,43.63
2022-12-09T19:54:13.818Z,43.13
2022-12-09T19:56:41.203Z,46.73
2022-12-09T19:59:08.459Z,46.60
2022-12-09T20:01:38.141Z,58.23
2022-12-09T20:04:25.300Z,53.90
2022-12-09T20:06:54.258Z,56.97
2022-12-09T20:09:21.708Z,89.40
2022-12-09T20:11:49.050Z,62.37
2022-12-09T20:14:16.350Z,58.17
2022-12-09T20:16:45.005Z,68.27
2022-12-09T20:19:35.121Z,91.93
2022-12-09T20:25:13.426Z,151.57
2022-12-09T20:27:40.763Z,162.77
2022-12-09T20:30:09.074Z,112.73
2022-12-09T20:32:37.995Z,74.43
2022-12-09T20:35:08.734Z,57.63
2022-12-09T20:38:00.900Z,127.27
2022-12-09T20:40:28.182Z,134.37
2022-12-09T20:42:55.427Z,87.10
2022-12-09T20:45:22.682Z,62.67
2022-12-09T20:48:24.975Z,77.93
2022-12-09T20:54:23.571Z,67.63
2022-12-09T20:56:51.016Z,67.83
2022-12-09T20:59:18.338Z,65.90
2022-12-09T21:01:45.711Z,54.20
2022-12-09T21:04:12.909Z,63.23
2022-12-09T21:06:41.200Z,57.47
2022-12-09T21:09:09.812Z,60.83
2022-12-09T21:11:38.795Z,59.07
2022-12-09T21:14:07.146Z,53.40
2022-12-09T21:16:35.668Z,38.57
2022-12-09T21:23:25.100Z,62.23
2022-12-09T21:25:44.410Z,50.80
2022-12-09T21:28:13.078Z,53.17
2022-12-09T21:30:40.298Z,40.83
2022-12-09T21:33:07.553Z,44.47
2022-12-09T21:35:34.859Z,44.07
2022-12-09T21:38:20.683Z,48.20
2022-12-09T21:40:48.858Z,46.43
2022-12-09T21:43:17.506Z,47.53
2022-12-09T21:45:44.795Z,44.77
2022-12-09T21:48:35.029Z,43.93
2022-12-09T21:51:22.840Z,40.40
2022-12-09T21:53:50.513Z,45.83
2022-12-09T21:56:19.244Z,40.40
2022-12-09T21:58:49.451Z,36.27
2022-12-09T22:01:18.028Z,40.77
2022-12-09T22:03:45.681Z,36.73
2022-12-09T22:06:28.851Z,28.67
2022-12-09T22:08:56.132Z,36.37
2022-12-09T22:11:24.375Z,31.17
2022-12-09T22:13:53.479Z,30.60
2022-12-09T22:16:39.899Z,30.20
2022-12-09T22:20:22.585Z,33.83
2022-12-09T22:22:46.702Z,37.90
2022-12-09T22:25:14.053Z,39.67
2022-12-09T22:27:41.283Z,38.80
2022-12-09T22:30:10.835Z,26.40
2022-12-09T22:32:41.609Z,26.97
2022-12-09T22:35:10.790Z,38.60
2022-12-09T22:37:59.144Z,40.17
2022-12-09T22:40:26.668Z,45.67
2022-12-09T22:42:54.065Z,42.70
2022-12-09T22:45:22.819Z,47.50
2022-12-09T22:51:48.403Z,50.83
2022-12-09T22:54:15.706Z,41.17
2022-12-09T22:56:43.484Z,44.47
2022-12-09T22:59:11.213Z,45.43
2022-12-09T23:01:39.899Z,49.70
2022-12-09T23:04:07.928Z,31.83
2022-12-09T23:06:44.555Z,37.17
2022-12-09T23:09:14.288Z,43.73
2022-12-09T23:11:41.497Z,48.20
2022-12-09T23:14:08.693Z,38.57
2022-12-09T23:20:28.384Z,49.73
2022-12-09T23:22:55.694Z,40.13
2022-12-09T23:25:22.970Z,46.43
2022-12-09T23:27:50.184Z,47.87
2022-12-09T23:30:17.579Z,49.43
2022-12-09T23:32:44.823Z,47.53
2022-12-09T23:38:03.407Z,54.23
2022-12-09T23:40:30.636Z,43.67
2022-12-09T23:42:57.859Z,45.67
2022-12-09T23:49:16.555Z,44.63
2022-12-09T23:51:44.109Z,45.97
2022-12-09T23:54:13.549Z,44.40
2022-12-09T23:56:41.222Z,38.87
2022-12-09T23:59:09.330Z,46.10
